Terminal Aerodrome Forecast
Issued by NWS

Home | Current Version | Previous Version | Text Only | Print | Product List | Glossary On
Versions: 1 2 3 4 5 6 7 8 9 10 11 12 13 14 15 16 17 18
210
FTUS46 KPDT 121738
TAFALW
TAF
KALW 121738Z 1218/1318 10005KT P6SM SCT009 OVC013
     FM122000 VRB04KT P6SM OVC016
     FM130600 19005KT P6SM BKN009 OVC013=

USA.gov is the U.S. government's official web portal to all federal, state and local government web resources and services.